sensor_id;sensor_type;location;lat;lon;timestamp;P1;durP1;ratioP1;P2;durP2;ratioP2
17251;SDS011;8742;51.716;8.790;2023-07-31T00:01:59;4.90;;;2.30;;
17251;SDS011;8742;51.716;8.790;2023-07-31T00:04:26;4.17;;;2.27;;
17251;SDS011;8742;51.716;8.790;2023-07-31T00:06:53;3.57;;;2.27;;
17251;SDS011;8742;51.716;8.790;2023-07-31T00:09:20;5.23;;;2.53;;
17251;SDS011;8742;51.716;8.790;2023-07-31T00:11:47;3.20;;;2.50;;
17251;SDS011;8742;51.716;8.790;2023-07-31T00:14:14;5.37;;;3.20;;
17251;SDS011;8742;51.716;8.790;2023-07-31T00:16:42;3.47;;;2.60;;
17251;SDS011;8742;51.716;8.790;2023-07-31T00:19:10;3.80;;;2.87;;
17251;SDS011;8742;51.716;8.790;2023-07-31T00:21:37;4.70;;;2.93;;
17251;SDS011;8742;51.716;8.790;2023-07-31T00:24:05;3.40;;;2.60;;
17251;SDS011;8742;51.716;8.790;2023-07-31T00:26:31;7.03;;;3.57;;
17251;SDS011;8742;51.716;8.790;2023-07-31T00:29:00;5.77;;;3.47;;
17251;SDS011;8742;51.716;8.790;2023-07-31T00:31:27;6.47;;;3.23;;
17251;SDS011;8742;51.716;8.790;2023-07-31T00:33:54;4.03;;;3.20;;
17251;SDS011;8742;51.716;8.790;2023-07-31T00:36:23;4.53;;;3.30;;
17251;SDS011;8742;51.716;8.790;2023-07-31T00:38:50;4.53;;;2.97;;
17251;SDS011;8742;51.716;8.790;2023-07-31T00:41:17;5.83;;;2.93;;
17251;SDS011;8742;51.716;8.790;2023-07-31T00:43:44;4.13;;;3.07;;
17251;SDS011;8742;51.716;8.790;2023-07-31T00:46:11;4.60;;;2.70;;
17251;SDS011;8742;51.716;8.790;2023-07-31T00:48:38;4.83;;;3.07;;
17251;SDS011;8742;51.716;8.790;2023-07-31T00:51:06;5.63;;;3.03;;
17251;SDS011;8742;51.716;8.790;2023-07-31T00:53:35;4.47;;;3.03;;
17251;SDS011;8742;51.716;8.790;2023-07-31T00:56:04;5.30;;;2.93;;
17251;SDS011;8742;51.716;8.790;2023-07-31T00:58:32;3.90;;;2.90;;
17251;SDS011;8742;51.716;8.790;2023-07-31T01:00:58;3.50;;;3.20;;
17251;SDS011;8742;51.716;8.790;2023-07-31T01:03:25;5.47;;;2.70;;
17251;SDS011;8742;51.716;8.790;2023-07-31T01:05:55;5.17;;;2.97;;
17251;SDS011;8742;51.716;8.790;2023-07-31T01:08:34;3.53;;;2.60;;
17251;SDS011;8742;51.716;8.790;2023-07-31T01:11:10;4.70;;;2.73;;
17251;SDS011;8742;51.716;8.790;2023-07-31T01:13:44;4.17;;;2.80;;
17251;SDS011;8742;51.716;8.790;2023-07-31T01:16:12;4.07;;;2.57;;
17251;SDS011;8742;51.716;8.790;2023-07-31T01:18:39;3.97;;;2.67;;
17251;SDS011;8742;51.716;8.790;2023-07-31T01:21:11;2.70;;;2.23;;
17251;SDS011;8742;51.716;8.790;2023-07-31T01:24:04;2.50;;;2.20;;
17251;SDS011;8742;51.716;8.790;2023-07-31T01:26:49;3.43;;;2.70;;
17251;SDS011;8742;51.716;8.790;2023-07-31T01:29:23;6.17;;;2.67;;
17251;SDS011;8742;51.716;8.790;2023-07-31T01:31:56;3.27;;;2.70;;
17251;SDS011;8742;51.716;8.790;2023-07-31T01:34:27;4.53;;;2.40;;
17251;SDS011;8742;51.716;8.790;2023-07-31T01:39:37;4.93;;;2.93;;
17251;SDS011;8742;51.716;8.790;2023-07-31T01:42:06;4.10;;;2.57;;
17251;SDS011;8742;51.716;8.790;2023-07-31T01:44:33;4.17;;;2.83;;
17251;SDS011;8742;51.716;8.790;2023-07-31T01:47:00;6.10;;;2.67;;
17251;SDS011;8742;51.716;8.790;2023-07-31T01:49:27;3.20;;;2.43;;
17251;SDS011;8742;51.716;8.790;2023-07-31T01:51:53;4.27;;;3.03;;
17251;SDS011;8742;51.716;8.790;2023-07-31T01:54:20;5.30;;;2.80;;
17251;SDS011;8742;51.716;8.790;2023-07-31T01:56:47;4.17;;;2.80;;
17251;SDS011;8742;51.716;8.790;2023-07-31T01:59:15;2.30;;;2.10;;
17251;SDS011;8742;51.716;8.790;2023-07-31T02:01:42;3.80;;;2.40;;
17251;SDS011;8742;51.716;8.790;2023-07-31T02:04:09;3.73;;;2.13;;
17251;SDS011;8742;51.716;8.790;2023-07-31T02:06:36;3.87;;;2.10;;
17251;SDS011;8742;51.716;8.790;2023-07-31T02:09:03;2.80;;;2.03;;
17251;SDS011;8742;51.716;8.790;2023-07-31T02:11:30;3.03;;;1.90;;
17251;SDS011;8742;51.716;8.790;2023-07-31T02:13:56;2.30;;;2.10;;
17251;SDS011;8742;51.716;8.790;2023-07-31T02:16:24;4.37;;;1.60;;
17251;SDS011;8742;51.716;8.790;2023-07-31T02:18:51;1.83;;;1.67;;
17251;SDS011;8742;51.716;8.790;2023-07-31T02:21:18;1.23;;;1.13;;
17251;SDS011;8742;51.716;8.790;2023-07-31T02:23:46;1.83;;;1.20;;
17251;SDS011;8742;51.716;8.790;2023-07-31T02:26:13;2.40;;;1.80;;
17251;SDS011;8742;51.716;8.790;2023-07-31T02:28:40;3.10;;;1.90;;
17251;SDS011;8742;51.716;8.790;2023-07-31T02:31:08;2.30;;;1.70;;
17251;SDS011;8742;51.716;8.790;2023-07-31T02:33:36;1.77;;;1.67;;
17251;SDS011;8742;51.716;8.790;2023-07-31T02:36:03;1.93;;;1.70;;
17251;SDS011;8742;51.716;8.790;2023-07-31T02:38:30;4.00;;;1.70;;
17251;SDS011;8742;51.716;8.790;2023-07-31T02:40:57;2.97;;;1.80;;
17251;SDS011;8742;51.716;8.790;2023-07-31T02:43:24;1.73;;;1.57;;
17251;SDS011;8742;51.716;8.790;2023-07-31T02:45:51;3.07;;;2.27;;
17251;SDS011;8742;51.716;8.790;2023-07-31T02:48:18;5.17;;;2.40;;
17251;SDS011;8742;51.716;8.790;2023-07-31T02:50:46;2.77;;;2.50;;
17251;SDS011;8742;51.716;8.790;2023-07-31T02:53:15;5.03;;;3.53;;
17251;SDS011;8742;51.716;8.790;2023-07-31T02:55:42;6.93;;;3.97;;
17251;SDS011;8742;51.716;8.790;2023-07-31T02:58:09;5.33;;;3.40;;
17251;SDS011;8742;51.716;8.790;2023-07-31T03:00:36;10.53;;;4.20;;
17251;SDS011;8742;51.716;8.790;2023-07-31T03:03:07;6.23;;;3.90;;
17251;SDS011;8742;51.716;8.790;2023-07-31T03:05:34;7.37;;;4.17;;
17251;SDS011;8742;51.716;8.790;2023-07-31T03:08:02;8.33;;;4.30;;
17251;SDS011;8742;51.716;8.790;2023-07-31T03:10:29;9.37;;;4.40;;
17251;SDS011;8742;51.716;8.790;2023-07-31T03:12:56;15.53;;;4.97;;
17251;SDS011;8742;51.716;8.790;2023-07-31T03:15:23;12.53;;;5.47;;
17251;SDS011;8742;51.716;8.790;2023-07-31T03:17:50;14.00;;;5.90;;
17251;SDS011;8742;51.716;8.790;2023-07-31T03:20:19;11.90;;;5.90;;
17251;SDS011;8742;51.716;8.790;2023-07-31T03:22:46;14.43;;;5.40;;
17251;SDS011;8742;51.716;8.790;2023-07-31T03:25:14;13.33;;;5.30;;
17251;SDS011;8742;51.716;8.790;2023-07-31T03:27:41;8.20;;;4.87;;
17251;SDS011;8742;51.716;8.790;2023-07-31T03:30:08;12.33;;;5.17;;
17251;SDS011;8742;51.716;8.790;2023-07-31T03:32:35;11.33;;;5.63;;
17251;SDS011;8742;51.716;8.790;2023-07-31T03:35:05;12.87;;;4.67;;
17251;SDS011;8742;51.716;8.790;2023-07-31T03:37:32;14.87;;;5.00;;
17251;SDS011;8742;51.716;8.790;2023-07-31T03:39:58;10.40;;;4.67;;
17251;SDS011;8742;51.716;8.790;2023-07-31T03:42:27;8.43;;;4.87;;
17251;SDS011;8742;51.716;8.790;2023-07-31T03:44:56;15.37;;;5.10;;
17251;SDS011;8742;51.716;8.790;2023-07-31T03:47:23;8.57;;;4.43;;
17251;SDS011;8742;51.716;8.790;2023-07-31T03:49:50;9.60;;;4.60;;
17251;SDS011;8742;51.716;8.790;2023-07-31T03:52:17;9.43;;;4.43;;
17251;SDS011;8742;51.716;8.790;2023-07-31T03:54:44;14.17;;;5.00;;
17251;SDS011;8742;51.716;8.790;2023-07-31T03:57:11;11.87;;;4.83;;
17251;SDS011;8742;51.716;8.790;2023-07-31T03:59:39;9.67;;;3.93;;
17251;SDS011;8742;51.716;8.790;2023-07-31T04:02:05;12.20;;;4.83;;
17251;SDS011;8742;51.716;8.790;2023-07-31T04:04:32;12.90;;;4.60;;
17251;SDS011;8742;51.716;8.790;2023-07-31T04:06:59;8.83;;;4.33;;
17251;SDS011;8742;51.716;8.790;2023-07-31T04:09:26;13.57;;;4.40;;
17251;SDS011;8742;51.716;8.790;2023-07-31T04:11:53;11.03;;;5.20;;
17251;SDS011;8742;51.716;8.790;2023-07-31T04:14:19;9.60;;;4.37;;
17251;SDS011;8742;51.716;8.790;2023-07-31T04:16:48;8.70;;;4.10;;
17251;SDS011;8742;51.716;8.790;2023-07-31T04:19:15;11.57;;;4.30;;
17251;SDS011;8742;51.716;8.790;2023-07-31T04:21:42;14.40;;;4.47;;
17251;SDS011;8742;51.716;8.790;2023-07-31T04:24:09;13.87;;;4.30;;
17251;SDS011;8742;51.716;8.790;2023-07-31T04:26:36;10.03;;;4.63;;
17251;SDS011;8742;51.716;8.790;2023-07-31T04:29:03;12.73;;;4.57;;
17251;SDS011;8742;51.716;8.790;2023-07-31T04:31:29;16.73;;;5.03;;
17251;SDS011;8742;51.716;8.790;2023-07-31T04:33:58;12.27;;;4.37;;
17251;SDS011;8742;51.716;8.790;2023-07-31T04:36:24;12.73;;;5.57;;
17251;SDS011;8742;51.716;8.790;2023-07-31T04:38:51;11.73;;;4.97;;
17251;SDS011;8742;51.716;8.790;2023-07-31T04:41:18;13.53;;;4.83;;
17251;SDS011;8742;51.716;8.790;2023-07-31T04:43:45;13.10;;;5.40;;
17251;SDS011;8742;51.716;8.790;2023-07-31T04:46:12;8.83;;;4.63;;
17251;SDS011;8742;51.716;8.790;2023-07-31T04:48:38;16.00;;;4.30;;
17251;SDS011;8742;51.716;8.790;2023-07-31T04:51:06;10.13;;;4.60;;
17251;SDS011;8742;51.716;8.790;2023-07-31T04:53:35;17.53;;;5.00;;
17251;SDS011;8742;51.716;8.790;2023-07-31T04:56:02;9.53;;;4.40;;
17251;SDS011;8742;51.716;8.790;2023-07-31T04:58:29;8.40;;;4.17;;
17251;SDS011;8742;51.716;8.790;2023-07-31T05:00:56;12.93;;;4.40;;
17251;SDS011;8742;51.716;8.790;2023-07-31T05:03:23;10.73;;;4.57;;
17251;SDS011;8742;51.716;8.790;2023-07-31T05:05:50;13.60;;;4.90;;
17251;SDS011;8742;51.716;8.790;2023-07-31T05:08:18;9.93;;;4.83;;
17251;SDS011;8742;51.716;8.790;2023-07-31T05:10:48;10.77;;;4.30;;
17251;SDS011;8742;51.716;8.790;2023-07-31T05:13:15;9.33;;;4.10;;
17251;SDS011;8742;51.716;8.790;2023-07-31T05:15:42;11.27;;;4.93;;
17251;SDS011;8742;51.716;8.790;2023-07-31T05:18:08;6.93;;;4.27;;
17251;SDS011;8742;51.716;8.790;2023-07-31T05:20:35;14.80;;;4.37;;
17251;SDS011;8742;51.716;8.790;2023-07-31T05:23:02;11.27;;;4.30;;
17251;SDS011;8742;51.716;8.790;2023-07-31T05:25:30;12.30;;;4.63;;
17251;SDS011;8742;51.716;8.790;2023-07-31T05:27:57;11.80;;;4.63;;
17251;SDS011;8742;51.716;8.790;2023-07-31T05:30:24;10.60;;;4.60;;
17251;SDS011;8742;51.716;8.790;2023-07-31T05:32:51;15.50;;;5.17;;
17251;SDS011;8742;51.716;8.790;2023-07-31T05:35:18;11.47;;;4.70;;
17251;SDS011;8742;51.716;8.790;2023-07-31T05:37:44;13.60;;;4.60;;
17251;SDS011;8742;51.716;8.790;2023-07-31T05:40:11;15.23;;;4.40;;
17251;SDS011;8742;51.716;8.790;2023-07-31T05:42:39;17.67;;;5.23;;
17251;SDS011;8742;51.716;8.790;2023-07-31T05:45:06;13.00;;;4.97;;
17251;SDS011;8742;51.716;8.790;2023-07-31T05:47:33;12.23;;;4.87;;
17251;SDS011;8742;51.716;8.790;2023-07-31T05:50:00;14.17;;;4.83;;
17251;SDS011;8742;51.716;8.790;2023-07-31T05:52:27;8.87;;;4.53;;
17251;SDS011;8742;51.716;8.790;2023-07-31T05:54:55;11.67;;;4.73;;
17251;SDS011;8742;51.716;8.790;2023-07-31T05:57:21;16.73;;;5.30;;
17251;SDS011;8742;51.716;8.790;2023-07-31T05:59:50;14.20;;;5.17;;
17251;SDS011;8742;51.716;8.790;2023-07-31T06:02:18;14.77;;;4.53;;
17251;SDS011;8742;51.716;8.790;2023-07-31T06:04:45;16.20;;;4.60;;
17251;SDS011;8742;51.716;8.790;2023-07-31T06:07:12;13.77;;;5.17;;
17251;SDS011;8742;51.716;8.790;2023-07-31T06:09:38;10.03;;;4.80;;
17251;SDS011;8742;51.716;8.790;2023-07-31T06:12:05;10.57;;;4.70;;
17251;SDS011;8742;51.716;8.790;2023-07-31T06:14:34;13.40;;;4.80;;
17251;SDS011;8742;51.716;8.790;2023-07-31T06:17:02;12.87;;;4.47;;
17251;SDS011;8742;51.716;8.790;2023-07-31T06:19:30;11.87;;;4.23;;
17251;SDS011;8742;51.716;8.790;2023-07-31T06:21:59;14.80;;;4.53;;
17251;SDS011;8742;51.716;8.790;2023-07-31T06:24:27;15.07;;;5.07;;
17251;SDS011;8742;51.716;8.790;2023-07-31T06:26:54;6.90;;;4.33;;
17251;SDS011;8742;51.716;8.790;2023-07-31T06:29:22;10.17;;;5.13;;
17251;SDS011;8742;51.716;8.790;2023-07-31T06:31:49;10.27;;;4.57;;
17251;SDS011;8742;51.716;8.790;2023-07-31T06:34:18;12.43;;;4.60;;
17251;SDS011;8742;51.716;8.790;2023-07-31T06:36:44;8.00;;;4.17;;
17251;SDS011;8742;51.716;8.790;2023-07-31T06:39:11;18.37;;;4.87;;
17251;SDS011;8742;51.716;8.790;2023-07-31T06:41:38;9.03;;;4.37;;
17251;SDS011;8742;51.716;8.790;2023-07-31T06:44:05;11.03;;;4.43;;
17251;SDS011;8742;51.716;8.790;2023-07-31T06:46:32;10.00;;;4.90;;
17251;SDS011;8742;51.716;8.790;2023-07-31T06:48:59;9.30;;;4.43;;
17251;SDS011;8742;51.716;8.790;2023-07-31T06:51:27;10.17;;;4.47;;
17251;SDS011;8742;51.716;8.790;2023-07-31T06:53:56;14.17;;;4.83;;
17251;SDS011;8742;51.716;8.790;2023-07-31T06:56:23;8.03;;;4.20;;
17251;SDS011;8742;51.716;8.790;2023-07-31T06:58:51;10.50;;;4.90;;
17251;SDS011;8742;51.716;8.790;2023-07-31T07:01:18;11.83;;;4.63;;
17251;SDS011;8742;51.716;8.790;2023-07-31T07:03:44;10.13;;;4.47;;
17251;SDS011;8742;51.716;8.790;2023-07-31T07:06:11;13.97;;;5.07;;
17251;SDS011;8742;51.716;8.790;2023-07-31T07:08:39;14.30;;;4.80;;
17251;SDS011;8742;51.716;8.790;2023-07-31T07:11:06;16.03;;;4.70;;
17251;SDS011;8742;51.716;8.790;2023-07-31T07:13:33;12.57;;;4.53;;
17251;SDS011;8742;51.716;8.790;2023-07-31T07:16:00;11.13;;;5.00;;
17251;SDS011;8742;51.716;8.790;2023-07-31T07:18:27;9.60;;;4.33;;
17251;SDS011;8742;51.716;8.790;2023-07-31T07:20:54;8.70;;;4.73;;
17251;SDS011;8742;51.716;8.790;2023-07-31T07:23:22;9.40;;;4.03;;
17251;SDS011;8742;51.716;8.790;2023-07-31T07:25:50;9.27;;;4.43;;
17251;SDS011;8742;51.716;8.790;2023-07-31T07:28:17;13.23;;;4.87;;
17251;SDS011;8742;51.716;8.790;2023-07-31T07:30:44;9.90;;;4.60;;
17251;SDS011;8742;51.716;8.790;2023-07-31T07:33:11;8.63;;;4.20;;
17251;SDS011;8742;51.716;8.790;2023-07-31T07:35:38;10.30;;;5.03;;
17251;SDS011;8742;51.716;8.790;2023-07-31T07:38:05;8.67;;;4.60;;
17251;SDS011;8742;51.716;8.790;2023-07-31T07:40:32;9.33;;;4.70;;
17251;SDS011;8742;51.716;8.790;2023-07-31T07:43:00;14.37;;;5.27;;
17251;SDS011;8742;51.716;8.790;2023-07-31T07:45:27;9.70;;;5.27;;
17251;SDS011;8742;51.716;8.790;2023-07-31T07:47:53;11.17;;;5.00;;
17251;SDS011;8742;51.716;8.790;2023-07-31T07:50:20;11.03;;;5.50;;
17251;SDS011;8742;51.716;8.790;2023-07-31T07:52:47;14.63;;;5.27;;
17251;SDS011;8742;51.716;8.790;2023-07-31T07:55:14;14.53;;;5.33;;
17251;SDS011;8742;51.716;8.790;2023-07-31T07:57:41;11.70;;;4.90;;
17251;SDS011;8742;51.716;8.790;2023-07-31T08:00:11;9.60;;;4.47;;
17251;SDS011;8742;51.716;8.790;2023-07-31T08:02:39;10.50;;;5.60;;
17251;SDS011;8742;51.716;8.790;2023-07-31T08:05:06;10.03;;;5.20;;
17251;SDS011;8742;51.716;8.790;2023-07-31T08:07:33;11.47;;;5.57;;
17251;SDS011;8742;51.716;8.790;2023-07-31T08:10:00;12.87;;;5.33;;
17251;SDS011;8742;51.716;8.790;2023-07-31T08:12:27;17.13;;;6.20;;
17251;SDS011;8742;51.716;8.790;2023-07-31T08:14:54;9.53;;;5.97;;
17251;SDS011;8742;51.716;8.790;2023-07-31T08:17:22;10.70;;;6.03;;
17251;SDS011;8742;51.716;8.790;2023-07-31T08:19:51;18.53;;;6.57;;
17251;SDS011;8742;51.716;8.790;2023-07-31T08:22:18;10.53;;;5.90;;
17251;SDS011;8742;51.716;8.790;2023-07-31T08:24:45;9.17;;;5.57;;
17251;SDS011;8742;51.716;8.790;2023-07-31T08:27:12;9.43;;;5.60;;
17251;SDS011;8742;51.716;8.790;2023-07-31T08:29:39;9.40;;;5.50;;
17251;SDS011;8742;51.716;8.790;2023-07-31T08:32:06;11.53;;;6.10;;
17251;SDS011;8742;51.716;8.790;2023-07-31T08:34:34;11.27;;;5.77;;
17251;SDS011;8742;51.716;8.790;2023-07-31T08:37:01;9.07;;;5.70;;
17251;SDS011;8742;51.716;8.790;2023-07-31T08:39:28;14.20;;;5.93;;
17251;SDS011;8742;51.716;8.790;2023-07-31T08:41:57;11.27;;;5.63;;
17251;SDS011;8742;51.716;8.790;2023-07-31T08:44:25;12.23;;;6.13;;
17251;SDS011;8742;51.716;8.790;2023-07-31T08:46:52;10.67;;;5.13;;
17251;SDS011;8742;51.716;8.790;2023-07-31T08:49:19;9.97;;;5.37;;
17251;SDS011;8742;51.716;8.790;2023-07-31T08:51:49;8.57;;;5.50;;
17251;SDS011;8742;51.716;8.790;2023-07-31T08:54:18;10.13;;;5.73;;
17251;SDS011;8742;51.716;8.790;2023-07-31T08:56:46;7.37;;;4.77;;
17251;SDS011;8742;51.716;8.790;2023-07-31T08:59:13;10.53;;;4.67;;
17251;SDS011;8742;51.716;8.790;2023-07-31T09:01:43;9.07;;;4.37;;
17251;SDS011;8742;51.716;8.790;2023-07-31T09:04:15;8.10;;;4.23;;
17251;SDS011;8742;51.716;8.790;2023-07-31T09:06:44;6.90;;;4.43;;
17251;SDS011;8742;51.716;8.790;2023-07-31T09:09:14;6.57;;;4.40;;
17251;SDS011;8742;51.716;8.790;2023-07-31T09:11:42;8.80;;;4.47;;
17251;SDS011;8742;51.716;8.790;2023-07-31T09:14:08;7.57;;;4.30;;
17251;SDS011;8742;51.716;8.790;2023-07-31T09:16:37;7.20;;;4.37;;
17251;SDS011;8742;51.716;8.790;2023-07-31T09:19:24;5.67;;;4.00;;
17251;SDS011;8742;51.716;8.790;2023-07-31T09:21:54;6.13;;;3.90;;
17251;SDS011;8742;51.716;8.790;2023-07-31T09:24:29;9.60;;;3.60;;
17251;SDS011;8742;51.716;8.790;2023-07-31T09:26:57;8.30;;;4.10;;
17251;SDS011;8742;51.716;8.790;2023-07-31T09:29:25;5.00;;;3.73;;
17251;SDS011;8742;51.716;8.790;2023-07-31T09:31:53;7.90;;;3.57;;
17251;SDS011;8742;51.716;8.790;2023-07-31T09:34:20;9.97;;;3.40;;
17251;SDS011;8742;51.716;8.790;2023-07-31T09:36:57;7.63;;;3.70;;
17251;SDS011;8742;51.716;8.790;2023-07-31T09:39:29;4.93;;;3.60;;
17251;SDS011;8742;51.716;8.790;2023-07-31T09:41:56;5.60;;;3.63;;
17251;SDS011;8742;51.716;8.790;2023-07-31T09:44:37;5.20;;;3.57;;
17251;SDS011;8742;51.716;8.790;2023-07-31T09:47:05;7.47;;;3.60;;
17251;SDS011;8742;51.716;8.790;2023-07-31T09:49:32;6.57;;;3.60;;
17251;SDS011;8742;51.716;8.790;2023-07-31T09:51:59;5.13;;;3.27;;
17251;SDS011;8742;51.716;8.790;2023-07-31T09:54:26;7.30;;;3.60;;
17251;SDS011;8742;51.716;8.790;2023-07-31T09:56:54;5.87;;;3.27;;
17251;SDS011;8742;51.716;8.790;2023-07-31T09:59:25;7.93;;;3.47;;
17251;SDS011;8742;51.716;8.790;2023-07-31T10:01:52;5.00;;;3.23;;
17251;SDS011;8742;51.716;8.790;2023-07-31T10:04:21;6.53;;;2.57;;
17251;SDS011;8742;51.716;8.790;2023-07-31T10:06:52;5.90;;;3.07;;
17251;SDS011;8742;51.716;8.790;2023-07-31T10:09:20;4.13;;;3.00;;
17251;SDS011;8742;51.716;8.790;2023-07-31T10:11:51;3.63;;;3.00;;
17251;SDS011;8742;51.716;8.790;2023-07-31T10:14:22;6.37;;;2.93;;
17251;SDS011;8742;51.716;8.790;2023-07-31T10:16:51;4.17;;;2.53;;
17251;SDS011;8742;51.716;8.790;2023-07-31T10:19:19;3.77;;;2.33;;
17251;SDS011;8742;51.716;8.790;2023-07-31T10:21:48;4.93;;;3.17;;
17251;SDS011;8742;51.716;8.790;2023-07-31T10:24:15;5.43;;;2.97;;
17251;SDS011;8742;51.716;8.790;2023-07-31T10:26:42;4.37;;;2.20;;
17251;SDS011;8742;51.716;8.790;2023-07-31T10:29:14;3.60;;;2.87;;
17251;SDS011;8742;51.716;8.790;2023-07-31T10:31:43;2.60;;;2.40;;
17251;SDS011;8742;51.716;8.790;2023-07-31T10:34:12;3.97;;;2.47;;
17251;SDS011;8742;51.716;8.790;2023-07-31T10:36:39;4.23;;;2.73;;
17251;SDS011;8742;51.716;8.790;2023-07-31T10:39:06;3.80;;;2.30;;
17251;SDS011;8742;51.716;8.790;2023-07-31T10:41:59;3.80;;;2.83;;
17251;SDS011;8742;51.716;8.790;2023-07-31T10:44:36;3.33;;;2.23;;
17251;SDS011;8742;51.716;8.790;2023-07-31T10:47:04;3.43;;;2.50;;
17251;SDS011;8742;51.716;8.790;2023-07-31T10:49:32;5.53;;;2.80;;
17251;SDS011;8742;51.716;8.790;2023-07-31T10:51:59;4.80;;;2.43;;
17251;SDS011;8742;51.716;8.790;2023-07-31T10:54:29;3.87;;;2.80;;
17251;SDS011;8742;51.716;8.790;2023-07-31T10:56:56;3.23;;;2.53;;
17251;SDS011;8742;51.716;8.790;2023-07-31T10:59:26;4.40;;;2.40;;
17251;SDS011;8742;51.716;8.790;2023-07-31T11:01:55;2.70;;;2.50;;
17251;SDS011;8742;51.716;8.790;2023-07-31T11:04:23;5.50;;;2.50;;
17251;SDS011;8742;51.716;8.790;2023-07-31T11:06:58;3.23;;;2.07;;
17251;SDS011;8742;51.716;8.790;2023-07-31T11:09:27;3.80;;;2.60;;
17251;SDS011;8742;51.716;8.790;2023-07-31T11:11:56;5.23;;;2.00;;
17251;SDS011;8742;51.716;8.790;2023-07-31T11:14:22;2.83;;;1.93;;
17251;SDS011;8742;51.716;8.790;2023-07-31T11:16:52;2.00;;;1.80;;
17251;SDS011;8742;51.716;8.790;2023-07-31T11:19:23;4.50;;;2.10;;
17251;SDS011;8742;51.716;8.790;2023-07-31T11:21:53;2.77;;;2.03;;
17251;SDS011;8742;51.716;8.790;2023-07-31T11:24:20;3.20;;;1.90;;
17251;SDS011;8742;51.716;8.790;2023-07-31T11:26:50;1.93;;;1.60;;
17251;SDS011;8742;51.716;8.790;2023-07-31T11:29:17;1.43;;;1.30;;
17251;SDS011;8742;51.716;8.790;2023-07-31T11:31:45;5.53;;;1.10;;
17251;SDS011;8742;51.716;8.790;2023-07-31T11:34:14;1.43;;;1.13;;
17251;SDS011;8742;51.716;8.790;2023-07-31T11:36:47;2.17;;;1.33;;
17251;SDS011;8742;51.716;8.790;2023-07-31T11:39:19;1.93;;;1.57;;
17251;SDS011;8742;51.716;8.790;2023-07-31T11:41:47;1.27;;;1.17;;
17251;SDS011;8742;51.716;8.790;2023-07-31T11:44:13;3.70;;;1.00;;
17251;SDS011;8742;51.716;8.790;2023-07-31T11:46:40;1.37;;;1.27;;
17251;SDS011;8742;51.716;8.790;2023-07-31T11:49:08;1.37;;;1.27;;
17251;SDS011;8742;51.716;8.790;2023-07-31T11:51:35;1.60;;;1.07;;
17251;SDS011;8742;51.716;8.790;2023-07-31T11:54:03;1.53;;;1.30;;
17251;SDS011;8742;51.716;8.790;2023-07-31T11:56:31;1.53;;;1.30;;
17251;SDS011;8742;51.716;8.790;2023-07-31T11:58:59;1.10;;;1.10;;
17251;SDS011;8742;51.716;8.790;2023-07-31T12:01:28;1.83;;;1.33;;
17251;SDS011;8742;51.716;8.790;2023-07-31T12:03:55;1.00;;;1.00;;
17251;SDS011;8742;51.716;8.790;2023-07-31T12:06:26;1.57;;;1.00;;
17251;SDS011;8742;51.716;8.790;2023-07-31T12:09:00;1.13;;;1.13;;
17251;SDS011;8742;51.716;8.790;2023-07-31T12:11:31;2.10;;;1.60;;
17251;SDS011;8742;51.716;8.790;2023-07-31T12:13:58;1.57;;;1.30;;
17251;SDS011;8742;51.716;8.790;2023-07-31T12:16:30;0.90;;;0.90;;
17251;SDS011;8742;51.716;8.790;2023-07-31T12:18:58;1.10;;;1.00;;
17251;SDS011;8742;51.716;8.790;2023-07-31T12:21:25;2.07;;;1.37;;
17251;SDS011;8742;51.716;8.790;2023-07-31T12:23:53;1.03;;;1.03;;
17251;SDS011;8742;51.716;8.790;2023-07-31T12:26:21;2.30;;;1.50;;
17251;SDS011;8742;51.716;8.790;2023-07-31T12:28:54;3.50;;;1.20;;
17251;SDS011;8742;51.716;8.790;2023-07-31T12:31:21;1.37;;;0.90;;
17251;SDS011;8742;51.716;8.790;2023-07-31T12:33:49;0.83;;;0.67;;
17251;SDS011;8742;51.716;8.790;2023-07-31T12:36:20;2.07;;;1.00;;
17251;SDS011;8742;51.716;8.790;2023-07-31T12:38:49;2.70;;;0.80;;
17251;SDS011;8742;51.716;8.790;2023-07-31T12:41:16;2.43;;;0.87;;
17251;SDS011;8742;51.716;8.790;2023-07-31T12:43:44;2.03;;;1.10;;
17251;SDS011;8742;51.716;8.790;2023-07-31T12:46:13;1.10;;;1.00;;
17251;SDS011;8742;51.716;8.790;2023-07-31T12:48:40;0.97;;;0.90;;
17251;SDS011;8742;51.716;8.790;2023-07-31T12:51:07;1.90;;;1.10;;
17251;SDS011;8742;51.716;8.790;2023-07-31T12:53:34;0.70;;;0.70;;
17251;SDS011;8742;51.716;8.790;2023-07-31T12:56:01;1.33;;;1.20;;
17251;SDS011;8742;51.716;8.790;2023-07-31T12:58:28;1.03;;;0.93;;
17251;SDS011;8742;51.716;8.790;2023-07-31T13:00:55;2.93;;;1.47;;
17251;SDS011;8742;51.716;8.790;2023-07-31T13:03:23;1.30;;;1.20;;
17251;SDS011;8742;51.716;8.790;2023-07-31T13:05:50;2.57;;;1.50;;
17251;SDS011;8742;51.716;8.790;2023-07-31T13:08:17;2.13;;;1.70;;
17251;SDS011;8742;51.716;8.790;2023-07-31T13:10:44;4.27;;;1.53;;
17251;SDS011;8742;51.716;8.790;2023-07-31T13:13:13;5.97;;;1.40;;
17251;SDS011;8742;51.716;8.790;2023-07-31T13:15:40;1.57;;;1.40;;
17251;SDS011;8742;51.716;8.790;2023-07-31T13:18:07;2.40;;;1.53;;
17251;SDS011;8742;51.716;8.790;2023-07-31T13:20:35;1.97;;;1.43;;
17251;SDS011;8742;51.716;8.790;2023-07-31T13:23:02;2.10;;;1.40;;
17251;SDS011;8742;51.716;8.790;2023-07-31T13:25:29;2.63;;;1.67;;
17251;SDS011;8742;51.716;8.790;2023-07-31T13:27:56;1.60;;;1.50;;
17251;SDS011;8742;51.716;8.790;2023-07-31T13:30:22;1.50;;;1.40;;
17251;SDS011;8742;51.716;8.790;2023-07-31T13:32:49;2.30;;;1.40;;
17251;SDS011;8742;51.716;8.790;2023-07-31T13:35:16;2.97;;;1.73;;
17251;SDS011;8742;51.716;8.790;2023-07-31T13:37:44;2.33;;;1.83;;
17251;SDS011;8742;51.716;8.790;2023-07-31T13:40:11;2.50;;;1.70;;
17251;SDS011;8742;51.716;8.790;2023-07-31T13:42:38;3.53;;;1.70;;
17251;SDS011;8742;51.716;8.790;2023-07-31T13:45:05;7.33;;;1.90;;
17251;SDS011;8742;51.716;8.790;2023-07-31T13:47:32;1.67;;;1.50;;
17251;SDS011;8742;51.716;8.790;2023-07-31T13:49:59;3.93;;;1.90;;
17251;SDS011;8742;51.716;8.790;2023-07-31T13:52:26;3.60;;;1.90;;
17251;SDS011;8742;51.716;8.790;2023-07-31T13:54:55;4.63;;;1.77;;
17251;SDS011;8742;51.716;8.790;2023-07-31T13:57:22;4.10;;;1.63;;
17251;SDS011;8742;51.716;8.790;2023-07-31T13:59:53;1.50;;;1.37;;
17251;SDS011;8742;51.716;8.790;2023-07-31T14:02:20;1.57;;;1.47;;
17251;SDS011;8742;51.716;8.790;2023-07-31T14:04:47;1.47;;;1.37;;
17251;SDS011;8742;51.716;8.790;2023-07-31T14:07:14;1.70;;;1.47;;
17251;SDS011;8742;51.716;8.790;2023-07-31T14:09:42;1.53;;;1.43;;
17251;SDS011;8742;51.716;8.790;2023-07-31T14:12:11;1.57;;;1.47;;
17251;SDS011;8742;51.716;8.790;2023-07-31T14:14:37;1.60;;;1.50;;
17251;SDS011;8742;51.716;8.790;2023-07-31T14:17:05;4.77;;;1.97;;
17251;SDS011;8742;51.716;8.790;2023-07-31T14:19:31;2.87;;;1.70;;
17251;SDS011;8742;51.716;8.790;2023-07-31T14:21:58;1.83;;;1.67;;
17251;SDS011;8742;51.716;8.790;2023-07-31T14:24:25;1.47;;;1.37;;
17251;SDS011;8742;51.716;8.790;2023-07-31T14:26:52;2.20;;;2.00;;
17251;SDS011;8742;51.716;8.790;2023-07-31T14:29:20;1.60;;;1.50;;
17251;SDS011;8742;51.716;8.790;2023-07-31T14:31:49;1.80;;;1.40;;
17251;SDS011;8742;51.716;8.790;2023-07-31T14:34:15;2.80;;;1.60;;
17251;SDS011;8742;51.716;8.790;2023-07-31T14:36:42;2.77;;;1.80;;
17251;SDS011;8742;51.716;8.790;2023-07-31T14:39:11;3.30;;;1.57;;
17251;SDS011;8742;51.716;8.790;2023-07-31T14:41:38;1.73;;;1.63;;
17251;SDS011;8742;51.716;8.790;2023-07-31T14:44:04;1.63;;;1.53;;
17251;SDS011;8742;51.716;8.790;2023-07-31T14:46:33;2.07;;;1.97;;
17251;SDS011;8742;51.716;8.790;2023-07-31T14:48:59;2.70;;;1.93;;
17251;SDS011;8742;51.716;8.790;2023-07-31T14:51:26;2.20;;;1.90;;
17251;SDS011;8742;51.716;8.790;2023-07-31T14:53:53;3.30;;;2.60;;
17251;SDS011;8742;51.716;8.790;2023-07-31T14:56:20;3.67;;;2.57;;
17251;SDS011;8742;51.716;8.790;2023-07-31T14:58:47;3.90;;;2.53;;
17251;SDS011;8742;51.716;8.790;2023-07-31T15:01:13;4.07;;;2.50;;
17251;SDS011;8742;51.716;8.790;2023-07-31T15:03:42;3.20;;;2.60;;
17251;SDS011;8742;51.716;8.790;2023-07-31T15:06:11;2.87;;;2.30;;